Sibel J — 5IM270 — position and weather

sailwx.info

Track history (hours):
 
Tides and Currents Weather Stations Pressure Air Temp Water Temp Dewpoint Dewpoint Depression Visibility Wind Speed Wind Dir Waves Ship Positions

Sibel J

Last reported at 2014-Dec-06 06:09 UTC. Time now 2014-Dec-19 15:51 UTC.
Position N 40°47' E 029°36'.
Warning: this ship's position is 13 days out of date.

Length 100 m; draft 4.6 m.

Type: Cargo ship. MMSI: 677017000.

Date/timePositionNaut miles runAvg speedWind from/ knotsBaromVisibWave heightAir tempDewpointWater temp
2014-Dec-06 06:09N 40°47' E 029°36'5 7.7
2014-Dec-06 05:31N 40°45' E 029°30'3 1.4
2014-Dec-06 03:32N 40°46' E 029°26'0 0.0
2014-Dec-06 01:32N 40°46' E 029°26'0 0.0
2014-Dec-06 00:08N 40°46' E 029°26'0 0.0
2014-Dec-05 17:25N 40°46' E 029°26'5 4.7
2014-Dec-05 16:26N 40°44' E 029°21'6 6.9
2014-Dec-05 15:33N 40°43' E 029°13'0 0.2
2014-Dec-05 14:33N 40°43' E 029°13'0 0.2
2014-Dec-05 13:33N 40°43' E 029°13'2 2.2
2014-Dec-05 12:33N 40°41' E 029°14'1 0.8
2014-Dec-05 11:26N 40°41' E 029°16'1 0.5
2014-Dec-05 09:20N 40°42' E 029°16'2 1.3
2014-Dec-05 08:11N 40°41' E 029°15'1 0.7
2014-Dec-05 07:23N 40°42' E 029°15'1 0.8
2014-Dec-05 06:15N 40°43' E 029°14'3 4.8
2014-Dec-05 05:33N 40°42' E 029°10'2 2.0
2014-Dec-05 04:32N 40°41' E 029°08'1 0.6
2014-Dec-05 03:26N 40°42' E 029°07'1 0.7
2014-Dec-05 02:26N 40°42' E 029°06'1 0.7
2014-Dec-05 01:33N 40°42' E 029°07'0 0.2
2014-Dec-05 00:28N 40°42' E 029°07'1 1.0
2014-Dec-04 23:22N 40°43' E 029°06'1 0.8
2014-Dec-04 22:22N 40°43' E 029°05'1 0.9
2014-Dec-04 21:28N 40°43' E 029°04'1 0.8
2014-Dec-04 20:28N 40°43' E 029°03'1 0.9
2014-Dec-04 19:28N 40°44' E 029°02'1 0.9
2014-Dec-04 18:22N 40°44' E 029°01'1 0.7
2014-Dec-04 17:10N 40°44' E 028°60'0 0.5
2014-Dec-04 16:28N 40°45' E 028°59'1 0.5
2014-Dec-04 15:10N 40°45' E 028°59'1 0.7
2014-Dec-04 13:28N 40°46' E 028°58'2 0.7
2014-Dec-04 11:10N 40°48' E 028°59'4 5.8
2014-Dec-04 10:24N 40°51' E 028°56'6 6.8
2014-Dec-04 09:32N 40°57' E 028°54'0 0.0
2014-Dec-04 08:04N 40°57' E 028°54'0 0.0
2014-Dec-04 07:16N 40°57' E 028°54'0 0.0
2014-Dec-04 06:22N 40°57' E 028°54'0 0.0
2014-Dec-04 05:28N 40°57' E 028°54'0 0.0
2014-Dec-04 04:28N 40°57' E 028°54'0 0.0
2014-Dec-04 03:22N 40°57' E 028°54'0 0.0
2014-Dec-04 02:22N 40°57' E 028°54'0 0.0
2014-Dec-03 23:32N 40°57' E 028°54'3 3.3
2014-Dec-03 22:33N 40°54' E 028°56'9 8.8
2014-Dec-03 21:31N 40°50' E 028°46'  
2014-Nov-29 18:18N 40°55' E 028°48'7 8.9
2014-Nov-29 17:33N 40°57' E 028°57'13 9.2
2014-Nov-29 16:10N 41°09' E 029°04'  
Track history (hours):
 
Tides and Currents Weather Stations Pressure Air Temp Water Temp Dewpoint Dewpoint Depression Visibility Wind Speed Wind Dir Waves Ship Positions

Sibel J

Last reported at 2014-Dec-06 06:09 UTC. Time now 2014-Dec-19 15:51 UTC.
Position N 40°47' E 029°36'.
Warning: this ship's position is 13 days out of date.

Length 100 m; draft 4.6 m.

Type: Cargo ship. MMSI: 677017000.

Date/timePositionNaut miles runAvg speedWind from/ knotsBaromVisibWave heightAir tempDewpointWater temp
2014-Dec-06 06:09N 40°47' E 029°36'5 7.7
2014-Dec-06 05:31N 40°45' E 029°30'3 1.4
2014-Dec-06 03:32N 40°46' E 029°26'0 0.0
2014-Dec-06 01:32N 40°46' E 029°26'0 0.0
2014-Dec-06 00:08N 40°46' E 029°26'0 0.0
2014-Dec-05 17:25N 40°46' E 029°26'5 4.7
2014-Dec-05 16:26N 40°44' E 029°21'6 6.9
2014-Dec-05 15:33N 40°43' E 029°13'0 0.2
2014-Dec-05 14:33N 40°43' E 029°13'0 0.2
2014-Dec-05 13:33N 40°43' E 029°13'2 2.2
2014-Dec-05 12:33N 40°41' E 029°14'1 0.8
2014-Dec-05 11:26N 40°41' E 029°16'1 0.5
2014-Dec-05 09:20N 40°42' E 029°16'2 1.3
2014-Dec-05 08:11N 40°41' E 029°15'1 0.7
2014-Dec-05 07:23N 40°42' E 029°15'1 0.8
2014-Dec-05 06:15N 40°43' E 029°14'3 4.8
2014-Dec-05 05:33N 40°42' E 029°10'2 2.0
2014-Dec-05 04:32N 40°41' E 029°08'1 0.6
2014-Dec-05 03:26N 40°42' E 029°07'1 0.7
2014-Dec-05 02:26N 40°42' E 029°06'1 0.7
2014-Dec-05 01:33N 40°42' E 029°07'0 0.2
2014-Dec-05 00:28N 40°42' E 029°07'1 1.0
2014-Dec-04 23:22N 40°43' E 029°06'1 0.8
2014-Dec-04 22:22N 40°43' E 029°05'1 0.9
2014-Dec-04 21:28N 40°43' E 029°04'1 0.8
2014-Dec-04 20:28N 40°43' E 029°03'1 0.9
2014-Dec-04 19:28N 40°44' E 029°02'1 0.9
2014-Dec-04 18:22N 40°44' E 029°01'1 0.7
2014-Dec-04 17:10N 40°44' E 028°60'0 0.5
2014-Dec-04 16:28N 40°45' E 028°59'1 0.5
2014-Dec-04 15:10N 40°45' E 028°59'1 0.7
2014-Dec-04 13:28N 40°46' E 028°58'2 0.7
2014-Dec-04 11:10N 40°48' E 028°59'4 5.8
2014-Dec-04 10:24N 40°51' E 028°56'6 6.8
2014-Dec-04 09:32N 40°57' E 028°54'0 0.0
2014-Dec-04 08:04N 40°57' E 028°54'0 0.0
2014-Dec-04 07:16N 40°57' E 028°54'0 0.0
2014-Dec-04 06:22N 40°57' E 028°54'0 0.0
2014-Dec-04 05:28N 40°57' E 028°54'0 0.0
2014-Dec-04 04:28N 40°57' E 028°54'0 0.0
2014-Dec-04 03:22N 40°57' E 028°54'0 0.0
2014-Dec-04 02:22N 40°57' E 028°54'0 0.0
2014-Dec-03 23:32N 40°57' E 028°54'3 3.3
2014-Dec-03 22:33N 40°54' E 028°56'9 8.8
2014-Dec-03 21:31N 40°50' E 028°46'  
2014-Nov-29 18:18N 40°55' E 028°48'7 8.9
2014-Nov-29 17:33N 40°57' E 028°57'13 9.2
2014-Nov-29 16:10N 41°09' E 029°04'  

Dump ship's entire track history